createdAt,value
2023-02-04T00:01:49.995Z,97751.16
2023-02-04T00:03:52.365Z,97756.31
2023-02-04T00:05:53.728Z,97773.44
2023-02-04T00:07:55.058Z,97780.31
2023-02-04T00:09:56.393Z,97782.84
2023-02-04T00:11:57.684Z,97800.63
2023-02-04T00:13:59.026Z,97821.88
2023-02-04T00:16:00.369Z,97797.88
2023-02-04T00:18:02.285Z,97809.06
2023-02-04T00:20:04.051Z,97803.03
2023-02-04T00:22:07.050Z,97819.34
2023-02-04T00:24:08.348Z,97820.00
2023-02-04T00:26:09.635Z,97846.56
2023-02-04T00:28:11.036Z,97835.78
2023-02-04T00:30:12.372Z,97855.06
2023-02-04T00:32:13.783Z,97847.22
2023-02-04T00:34:15.203Z,97865.47
2023-02-04T00:36:16.498Z,97866.25
2023-02-04T00:38:17.809Z,97866.50
2023-02-04T00:40:19.156Z,97866.75
2023-02-04T00:42:20.494Z,97865.13
2023-02-04T00:44:21.823Z,97878.91
2023-02-04T00:46:23.103Z,97873.91
2023-02-04T00:48:26.653Z,97901.28
2023-02-04T00:50:28.268Z,97917.56
2023-02-04T00:52:29.715Z,97910.75
2023-02-04T00:54:31.061Z,97915.16
2023-02-04T00:56:32.399Z,97897.31
2023-02-04T00:58:33.707Z,97917.72
2023-02-04T01:00:35.015Z,97930.44
2023-02-04T01:02:36.369Z,97927.63
2023-02-04T01:04:37.666Z,97933.94
2023-02-04T01:06:38.955Z,97952.66
2023-02-04T01:08:40.255Z,97948.31
2023-02-04T01:10:41.589Z,97979.44
2023-02-04T01:12:43.081Z,97895.66
2023-02-04T01:14:44.651Z,98001.38
2023-02-04T01:16:46.045Z,98010.38
2023-02-04T01:18:47.404Z,98002.47
2023-02-04T01:20:48.720Z,97997.16
2023-02-04T01:22:50.016Z,98009.69
2023-02-04T01:24:51.376Z,98023.91
2023-02-04T01:26:52.667Z,98021.16
2023-02-04T01:28:53.967Z,98035.47
2023-02-04T01:30:55.370Z,98031.13
2023-02-04T01:32:56.702Z,98029.28
2023-02-04T01:34:58.048Z,98044.63
2023-02-04T01:36:59.368Z,98044.53
2023-02-04T01:39:01.083Z,98047.00
2023-02-04T01:41:02.427Z,98066.50
2023-02-04T01:43:03.730Z,98063.97
2023-02-04T01:45:06.468Z,98080.16
2023-02-04T01:47:07.819Z,98091.28
2023-02-04T01:49:09.131Z,98096.41
2023-02-04T01:51:11.104Z,98106.63
2023-02-04T01:53:12.397Z,98126.25
2023-02-04T01:55:13.687Z,98111.84
2023-02-04T01:57:14.990Z,98134.13
2023-02-04T01:59:16.341Z,98135.94
2023-02-04T02:01:17.694Z,98153.06
2023-02-04T02:03:19.078Z,98147.13
2023-02-04T02:05:21.283Z,98168.41
2023-02-04T02:07:22.586Z,98164.19
2023-02-04T02:09:23.925Z,98182.19
2023-02-04T02:11:25.252Z,98194.19
2023-02-04T02:13:26.579Z,98210.44
2023-02-04T02:15:27.917Z,98202.03
2023-02-04T02:17:29.287Z,98215.78
2023-02-04T02:19:30.583Z,98230.31
2023-02-04T02:21:31.872Z,98234.63
2023-02-04T02:23:33.176Z,98244.03
2023-02-04T02:25:34.534Z,98257.69
2023-02-04T02:27:35.886Z,98260.28
2023-02-04T02:29:37.186Z,98262.88
2023-02-04T02:31:38.635Z,98266.34
2023-02-04T02:33:39.963Z,98279.13
2023-02-04T02:35:43.479Z,98298.75
2023-02-04T02:37:44.803Z,98292.78
2023-02-04T02:39:46.240Z,98305.63
2023-02-04T02:41:47.607Z,98319.25
2023-02-04T02:43:48.904Z,98315.88
2023-02-04T02:45:50.229Z,98325.25
2023-02-04T02:47:51.595Z,98332.06
2023-02-04T02:49:52.976Z,98341.44
2023-02-04T02:51:54.273Z,98363.56
2023-02-04T02:53:55.615Z,98366.09
2023-02-04T02:55:56.976Z,98366.09
2023-02-04T02:57:58.330Z,98371.16
2023-02-04T02:59:59.626Z,98376.25
2023-02-04T03:02:00.964Z,98387.19
2023-02-04T03:04:02.717Z,98392.25
2023-02-04T03:06:04.024Z,98394.66
2023-02-04T03:08:05.367Z,98404.78
2023-02-04T03:10:06.708Z,98414.06
2023-02-04T03:12:08.024Z,98414.81
2023-02-04T03:14:09.319Z,98421.53
2023-02-04T03:16:10.715Z,98418.06
2023-02-04T03:18:12.032Z,98434.22
2023-02-04T03:20:13.361Z,98443.63
2023-02-04T03:22:14.747Z,98441.13
2023-02-04T03:24:16.036Z,98449.75
2023-02-04T03:26:17.342Z,98460.03
2023-02-04T03:28:18.728Z,98460.88
2023-02-04T03:30:20.062Z,98468.44
2023-02-04T03:32:21.512Z,98475.31
2023-02-04T03:34:22.902Z,98333.84
2023-02-04T03:36:24.218Z,98496.75
2023-02-04T03:38:25.596Z,98513.88
2023-02-04T03:40:26.931Z,98515.63
2023-02-04T03:42:28.222Z,98523.34
2023-02-04T03:44:29.548Z,98528.50
2023-02-04T03:46:30.883Z,98527.63
2023-02-04T03:48:32.212Z,98553.25
2023-02-04T03:50:33.868Z,98557.47
2023-02-04T03:52:35.302Z,98569.38
2023-02-04T03:54:36.652Z,98570.22
2023-02-04T03:56:37.957Z,98581.34
2023-02-04T03:58:39.281Z,98578.81
2023-02-04T04:00:40.614Z,98583.94
2023-02-04T04:02:41.985Z,98582.28
2023-02-04T04:04:43.357Z,98584.88
2023-02-04T04:06:44.700Z,98587.38
2023-02-04T04:08:46.025Z,98588.19
2023-02-04T04:10:47.335Z,98590.75
2023-02-04T04:12:48.674Z,98605.28
2023-02-04T04:14:49.999Z,98611.19
2023-02-04T04:16:51.298Z,98614.59
2023-02-04T04:18:52.586Z,98625.69
2023-02-04T04:20:53.932Z,98626.50
2023-02-04T04:22:55.240Z,98636.69
2023-02-04T04:24:56.531Z,98643.44
2023-02-04T04:26:57.827Z,98641.69
2023-02-04T04:28:59.167Z,98649.25
2023-02-04T04:31:00.634Z,98654.25
2023-02-04T04:33:02.259Z,98653.38
2023-02-04T04:35:03.571Z,98665.25
2023-02-04T04:37:04.868Z,98666.94
2023-02-04T04:39:06.197Z,98680.53
2023-02-04T04:41:07.494Z,98685.63
2023-02-04T04:43:08.787Z,98538.69
2023-02-04T04:45:10.128Z,98706.88
2023-02-04T04:47:11.450Z,98706.91
2023-02-04T04:49:12.802Z,98718.88
2023-02-04T04:51:14.156Z,98724.06
2023-02-04T04:53:15.455Z,98730.03
2023-02-04T04:55:16.788Z,98728.38
2023-02-04T04:57:18.124Z,98737.81
2023-02-04T04:59:19.463Z,98747.22
2023-02-04T05:01:22.646Z,98748.06
2023-02-04T05:03:24.040Z,98744.69
2023-02-04T05:05:25.362Z,98749.88
2023-02-04T05:07:27.707Z,98757.53
2023-02-04T05:09:29.118Z,98730.53
2023-02-04T05:11:30.981Z,98771.16
2023-02-04T05:13:32.290Z,98782.22
2023-02-04T05:15:33.588Z,98780.59
2023-02-04T05:17:34.885Z,98778.91
2023-02-04T05:19:36.216Z,98787.47
2023-02-04T05:21:37.558Z,98783.22
2023-02-04T05:23:38.881Z,98788.34
2023-02-04T05:25:40.204Z,98793.47
2023-02-04T05:27:41.656Z,98800.25
2023-02-04T05:29:42.984Z,98800.25
2023-02-04T05:31:44.287Z,98811.34
2023-02-04T05:33:45.674Z,98812.19
2023-02-04T05:35:48.140Z,98819.84
2023-02-04T05:37:50.903Z,98827.50
2023-02-04T05:39:52.285Z,98841.13
2023-02-04T05:41:53.679Z,98833.44
2023-02-04T05:43:55.004Z,98857.25
2023-02-04T05:45:56.861Z,98853.78
2023-02-04T05:47:58.184Z,98857.88
2023-02-04T05:49:59.475Z,98873.13
2023-02-04T05:52:00.847Z,98876.44
2023-02-04T05:54:02.195Z,98885.75
2023-02-04T05:56:03.501Z,98895.06
2023-02-04T05:58:04.875Z,98896.78
2023-02-04T06:00:06.215Z,98906.97
2023-02-04T06:02:07.535Z,98912.09
2023-02-04T06:04:08.962Z,98912.94
2023-02-04T06:06:10.432Z,98915.53
2023-02-04T06:08:11.806Z,98923.19
2023-02-04T06:10:13.097Z,98930.06
2023-02-04T06:12:14.442Z,98931.81
2023-02-04T06:14:15.748Z,98938.63
2023-02-04T06:16:17.160Z,98950.59
2023-02-04T06:18:18.475Z,98954.03
2023-02-04T06:20:19.820Z,98957.50
2023-02-04T06:22:21.107Z,98970.28
2023-02-04T06:24:22.442Z,98977.16
2023-02-04T06:26:23.851Z,98984.88
2023-02-04T06:28:25.171Z,98990.03
2023-02-04T06:30:26.514Z,98984.94
2023-02-04T06:32:27.814Z,98993.50
2023-02-04T06:34:29.127Z,98997.78
2023-02-04T06:36:30.453Z,99005.50
2023-02-04T06:38:31.827Z,99006.34
2023-02-04T06:40:33.320Z,99010.63
2023-02-04T06:42:34.865Z,99022.53
2023-02-04T06:44:36.201Z,99017.47
2023-02-04T06:46:37.567Z,99027.72
2023-02-04T06:48:39.066Z,99032.81
2023-02-04T06:50:40.419Z,99037.03
2023-02-04T06:52:41.727Z,99048.94
2023-02-04T06:54:43.132Z,99052.38
2023-02-04T06:56:44.441Z,99054.91
2023-02-04T06:58:45.783Z,99055.75
2023-02-04T07:00:47.131Z,99060.03
2023-02-04T07:02:48.530Z,99070.28
2023-02-04T07:04:49.905Z,99066.91
2023-02-04T07:06:51.487Z,99070.34
2023-02-04T07:08:52.820Z,99079.75
2023-02-04T07:10:54.122Z,99076.38
2023-02-04T07:12:55.448Z,99078.94
2023-02-04T07:14:56.759Z,99085.75
2023-02-04T07:16:58.720Z,99090.88
2023-02-04T07:19:00.088Z,99089.22
2023-02-04T07:21:02.175Z,99097.72
2023-02-04T07:23:03.586Z,99102.84
2023-02-04T07:25:04.914Z,99107.09
2023-02-04T07:27:06.272Z,99106.22
2023-02-04T07:29:12.205Z,99114.72
2023-02-04T07:31:16.242Z,99121.50
2023-02-04T07:33:17.624Z,99123.13
2023-02-04T07:35:18.975Z,99127.34
2023-02-04T07:37:20.680Z,99124.78
2023-02-04T07:39:22.016Z,99129.88
2023-02-04T07:41:23.353Z,99136.63
2023-02-04T07:43:24.743Z,99136.59
2023-02-04T07:45:26.447Z,99140.84
2023-02-04T07:47:27.768Z,99145.91
2023-02-04T07:49:29.133Z,99145.06
2023-02-04T07:51:30.465Z,99143.38
2023-02-04T07:53:31.797Z,99144.25
2023-02-04T07:55:33.099Z,99142.53
2023-02-04T07:57:34.508Z,99140.78
2023-02-04T07:59:35.796Z,99142.50
2023-02-04T08:01:37.145Z,99144.25
2023-02-04T08:03:41.905Z,99150.19
2023-02-04T08:05:43.302Z,99147.69
2023-02-04T08:07:44.683Z,99151.94
2023-02-04T08:09:47.013Z,99157.97
2023-02-04T08:11:48.349Z,99158.00
2023-02-04T08:13:49.645Z,99156.28
2023-02-04T08:15:50.989Z,99162.25
2023-02-04T08:17:52.412Z,99184.38
2023-02-04T08:19:53.716Z,99164.84
2023-02-04T08:21:55.115Z,99169.09
2023-02-04T08:23:56.503Z,99168.22
2023-02-04T08:25:57.799Z,99170.03
2023-02-04T08:27:59.124Z,99171.66
2023-02-04T08:30:03.210Z,99175.03
2023-02-04T08:32:04.584Z,99174.22
2023-02-04T08:34:06.001Z,99175.81
2023-02-04T08:36:07.408Z,99190.38
2023-02-04T08:38:08.755Z,99196.41
2023-02-04T08:40:10.353Z,99192.19
2023-02-04T08:42:11.648Z,99203.28
2023-02-04T08:44:13.071Z,99200.72
2023-02-04T08:46:14.418Z,99214.38
2023-02-04T08:48:15.869Z,99221.19
2023-02-04T08:50:17.307Z,99220.31
2023-02-04T08:52:19.274Z,99231.38
2023-02-04T08:54:20.624Z,99233.88
2023-02-04T08:56:21.971Z,99230.47
2023-02-04T08:58:23.415Z,99231.31
2023-02-04T09:00:27.423Z,99234.66
2023-02-04T09:02:28.789Z,99232.94
2023-02-04T09:04:30.233Z,99238.81
2023-02-04T09:06:31.753Z,99244.78
2023-02-04T09:08:33.062Z,99119.06
2023-02-04T09:10:34.685Z,99248.16
2023-02-04T09:12:36.093Z,99260.94
2023-02-04T09:14:37.407Z,99259.25
2023-02-04T09:16:38.802Z,99258.41
2023-02-04T09:18:40.669Z,99258.41
2023-02-04T09:20:42.012Z,99266.97
2023-02-04T09:22:43.347Z,99268.75
2023-02-04T09:24:44.686Z,99270.44
2023-02-04T09:26:46.013Z,99272.16
2023-02-04T09:28:48.709Z,99280.72
2023-02-04T09:30:50.174Z,99279.88
2023-02-04T09:32:51.588Z,99280.78
2023-02-04T09:34:52.936Z,99279.06
2023-02-04T09:36:54.223Z,99293.56
2023-02-04T09:38:55.589Z,99291.03
2023-02-04T09:40:56.916Z,99295.41
2023-02-04T09:42:58.217Z,99297.56
2023-02-04T09:45:03.118Z,99320.38
2023-02-04T09:47:04.423Z,99320.66
2023-02-04T09:49:05.812Z,99307.56
2023-02-04T09:51:07.178Z,99295.28
2023-02-04T09:53:08.512Z,99308.97
2023-02-04T09:55:10.140Z,99320.00
2023-02-04T09:57:11.435Z,99308.78
2023-02-04T09:59:12.767Z,99314.53
2023-02-04T10:01:14.583Z,99311.16
2023-02-04T10:03:16.429Z,99312.72
2023-02-04T10:05:17.759Z,99304.09
2023-02-04T10:07:22.176Z,99312.53
2023-02-04T10:09:23.519Z,99321.06
2023-02-04T10:11:24.810Z,99310.78
2023-02-04T10:13:26.236Z,99323.03
2023-02-04T10:15:27.611Z,99321.44
2023-02-04T10:17:28.902Z,99328.25
2023-02-04T10:19:32.963Z,99327.25
2023-02-04T10:21:34.733Z,99333.06
2023-02-04T10:23:39.034Z,99330.97
2023-02-04T10:25:40.322Z,99336.41
2023-02-04T10:27:41.988Z,99332.25
2023-02-04T10:29:43.520Z,99337.13
2023-02-04T10:31:44.974Z,99332.69
2023-02-04T10:33:46.368Z,99338.66
2023-02-04T10:35:47.706Z,99347.16
2023-02-04T10:37:49.014Z,99346.25
2023-02-04T10:39:50.341Z,99350.53
2023-02-04T10:41:51.675Z,99357.16
2023-02-04T10:43:52.967Z,99355.56
2023-02-04T10:45:54.270Z,99363.09
2023-02-04T10:47:55.619Z,99362.06
2023-02-04T10:49:57.054Z,99365.59
2023-02-04T10:51:58.357Z,99380.91
2023-02-04T10:54:18.434Z,99361.66
2023-02-04T10:56:19.840Z,99364.44
2023-02-04T10:58:21.170Z,99368.00
2023-02-04T11:00:22.711Z,99373.34
2023-02-04T11:02:24.031Z,99370.88
2023-02-04T11:04:25.436Z,99370.06
2023-02-04T11:06:26.838Z,99368.38
2023-02-04T11:08:28.242Z,99362.44
2023-02-04T11:10:29.718Z,99364.16
2023-02-04T11:12:34.107Z,99362.47
2023-02-04T11:14:35.477Z,99359.06
2023-02-04T11:16:36.771Z,99365.88
2023-02-04T11:18:38.108Z,99368.47
2023-02-04T11:20:40.676Z,99367.59
2023-02-04T11:22:42.637Z,99380.41
2023-02-04T11:24:43.974Z,99373.56
2023-02-04T11:26:45.254Z,99377.81
2023-02-04T11:28:46.595Z,99381.25
2023-02-04T11:30:49.164Z,99370.16
2023-02-04T11:32:50.581Z,99372.72
2023-02-04T11:34:53.044Z,99378.66
2023-02-04T11:36:54.327Z,99385.41
2023-02-04T11:38:55.660Z,99385.44
2023-02-04T11:40:57.198Z,99380.34
2023-02-04T11:43:01.276Z,99391.44
2023-02-04T11:45:02.708Z,99386.31
2023-02-04T11:47:04.073Z,99390.63
2023-02-04T11:49:05.444Z,99384.63
2023-02-04T11:51:06.786Z,99390.56
2023-02-04T11:53:08.190Z,99392.22
2023-02-04T11:55:09.492Z,99390.47
2023-02-04T11:57:10.837Z,99234.84
2023-02-04T11:59:12.155Z,99399.03
2023-02-04T12:01:14.421Z,99398.19
2023-02-04T12:03:15.756Z,99398.84
2023-02-04T12:05:17.156Z,99401.06
2023-02-04T12:07:18.454Z,99402.06
2023-02-04T12:09:22.920Z,99398.69
2023-02-04T12:11:25.986Z,99406.25
2023-02-04T12:13:30.893Z,99402.50
2023-02-04T12:15:38.838Z,99405.03
2023-02-04T12:17:40.237Z,99411.47
2023-02-04T12:19:41.522Z,99420.19
2023-02-04T12:21:43.151Z,99412.59
2023-02-04T12:23:44.467Z,99416.91
2023-02-04T12:25:45.794Z,99416.94
2023-02-04T12:27:47.227Z,99415.22
2023-02-04T12:29:48.543Z,99405.88
2023-02-04T12:31:49.940Z,99398.19
2023-02-04T12:33:51.359Z,99387.97
2023-02-04T12:35:52.678Z,99402.47
2023-02-04T12:37:56.703Z,99402.47
2023-02-04T12:39:58.045Z,99402.50
2023-02-04T12:41:59.349Z,99413.56
2023-02-04T12:44:01.393Z,99403.38
2023-02-04T12:46:05.604Z,99402.53
2023-02-04T12:48:06.935Z,99403.38
2023-02-04T12:50:08.340Z,99401.66
2023-02-04T12:52:09.695Z,99411.91
2023-02-04T12:54:11.023Z,99406.78
2023-02-04T12:56:12.376Z,99408.50
2023-02-04T12:58:13.667Z,99406.81
2023-02-04T13:00:15.088Z,99403.38
2023-02-04T13:02:16.432Z,99414.47
2023-02-04T13:04:17.771Z,99408.53
2023-02-04T13:06:19.137Z,99409.38
2023-02-04T13:08:23.470Z,99414.47
2023-02-04T13:10:25.232Z,99426.41
2023-02-04T13:12:26.564Z,99423.84
2023-02-04T13:14:27.914Z,99427.25
2023-02-04T13:16:32.094Z,99427.28
2023-02-04T13:18:34.235Z,99428.97
2023-02-04T13:20:35.547Z,99434.91
2023-02-04T13:22:36.843Z,99431.47
2023-02-04T13:24:41.300Z,99432.34
2023-02-04T13:26:42.595Z,99447.72
2023-02-04T13:28:43.901Z,99439.16
2023-02-04T13:30:45.263Z,99444.25
2023-02-04T13:32:46.578Z,99444.25
2023-02-04T13:34:57.035Z,99443.44
2023-02-04T13:36:58.368Z,99443.47
2023-02-04T13:39:00.773Z,99449.44
2023-02-04T13:41:02.194Z,99444.31
2023-02-04T13:43:03.577Z,99447.72
2023-02-04T13:45:05.167Z,99445.19
2023-02-04T13:47:06.520Z,99454.53
2023-02-04T13:49:07.856Z,99457.09
2023-02-04T13:51:09.250Z,99446.88
2023-02-04T13:53:10.584Z,99447.75
2023-02-04T13:55:11.920Z,99457.94
2023-02-04T13:57:13.210Z,99465.59
2023-02-04T13:59:14.558Z,99460.50
2023-02-04T14:01:15.918Z,99469.00
2023-02-04T14:03:17.232Z,99459.66
2023-02-04T14:05:18.558Z,99459.66
2023-02-04T14:07:19.904Z,99459.66
2023-02-04T14:09:21.702Z,99462.19
2023-02-04T14:11:23.067Z,99455.38
2023-02-04T14:13:24.401Z,99456.25
2023-02-04T14:15:25.694Z,99451.13
2023-02-04T14:17:27.031Z,99454.53
2023-02-04T14:19:28.648Z,99452.84
2023-02-04T14:21:30.023Z,99447.72
2023-02-04T14:23:31.384Z,99450.28
2023-02-04T14:25:32.694Z,99447.75
2023-02-04T14:27:35.459Z,99454.56
2023-02-04T14:29:36.883Z,99452.88
2023-02-04T14:31:38.250Z,99454.59
2023-02-04T14:33:39.574Z,99456.28
2023-02-04T14:35:40.922Z,99457.97
2023-02-04T14:37:42.225Z,99460.53
2023-02-04T14:39:43.506Z,99458.00
2023-02-04T14:41:44.999Z,99461.41
2023-02-04T14:43:46.295Z,99462.25
2023-02-04T14:45:47.679Z,99469.94
2023-02-04T14:47:49.047Z,99473.31
2023-02-04T14:49:53.260Z,99469.03
2023-02-04T14:51:54.977Z,99474.16
2023-02-04T14:53:56.331Z,99469.06
2023-02-04T14:55:57.728Z,99469.06
2023-02-04T14:57:59.026Z,99475.88
2023-02-04T15:00:00.391Z,99469.06
2023-02-04T15:02:10.965Z,99469.00
2023-02-04T15:04:12.332Z,99469.88
2023-02-04T15:06:13.668Z,99468.16
2023-02-04T15:08:14.966Z,99467.31
2023-02-04T15:10:16.273Z,99469.88
2023-02-04T15:12:17.755Z,99470.72
2023-02-04T15:14:19.066Z,99472.44
2023-02-04T15:16:20.601Z,99486.06
2023-02-04T15:18:22.134Z,99473.28
2023-02-04T15:20:23.528Z,99475.84
2023-02-04T15:22:24.878Z,99476.69
2023-02-04T15:24:27.864Z,99482.63
2023-02-04T15:26:29.219Z,99477.53
2023-02-04T15:28:31.412Z,99475.84
2023-02-04T15:30:33.021Z,99478.38
2023-02-04T15:32:34.659Z,99475.84
2023-02-04T15:34:36.924Z,99477.50
2023-02-04T15:36:38.275Z,99266.28
2023-02-04T15:38:39.588Z,99487.75
2023-02-04T15:40:40.924Z,99486.06
2023-02-04T15:42:42.966Z,99480.09
2023-02-04T15:44:44.253Z,99485.19
2023-02-04T15:46:45.544Z,99486.09
2023-02-04T15:48:46.944Z,99487.81
2023-02-04T15:50:48.276Z,99484.41
2023-02-04T15:52:49.642Z,99492.94
2023-02-04T15:54:50.983Z,99491.22
2023-02-04T15:56:52.292Z,99490.34
2023-02-04T15:58:54.787Z,99497.16
2023-02-04T16:00:58.761Z,99495.47
2023-02-04T16:03:00.103Z,99498.03
2023-02-04T16:05:02.230Z,99500.59
2023-02-04T16:07:08.213Z,99501.44
2023-02-04T16:09:09.624Z,99511.66
2023-02-04T16:11:10.936Z,99512.50
2023-02-04T16:13:12.240Z,99514.22
2023-02-04T16:15:13.579Z,99532.06
2023-02-04T16:17:14.920Z,99525.22
2023-02-04T16:19:22.023Z,99535.47
2023-02-04T16:21:23.355Z,99537.13
2023-02-04T16:23:24.692Z,99543.13
2023-02-04T16:25:26.090Z,99542.25
2023-02-04T16:27:27.434Z,99542.25
2023-02-04T16:29:31.594Z,99540.53
2023-02-04T16:31:33.018Z,99536.28
2023-02-04T16:33:34.436Z,99540.53
2023-02-04T16:35:35.725Z,99542.22
2023-02-04T16:37:37.819Z,99546.50
2023-02-04T16:39:39.215Z,99566.94
2023-02-04T16:41:40.521Z,99544.78
2023-02-04T16:43:41.946Z,99553.28
2023-02-04T16:45:43.247Z,99549.03
2023-02-04T16:47:47.655Z,99550.75
2023-02-04T16:49:48.971Z,99543.91
2023-02-04T16:51:50.311Z,99546.47
2023-02-04T16:53:51.681Z,99548.19
2023-02-04T16:55:53.045Z,99549.94
2023-02-04T16:57:54.454Z,99553.31
2023-02-04T16:59:56.733Z,99550.78
2023-02-04T17:01:58.216Z,99559.31
2023-02-04T17:03:59.589Z,99559.31
2023-02-04T17:06:03.799Z,99559.28
2023-02-04T17:08:05.157Z,99562.69
2023-02-04T17:10:06.527Z,99555.84
2023-02-04T17:12:07.848Z,99557.50
2023-02-04T17:14:09.958Z,99557.50
2023-02-04T17:16:11.409Z,99558.31
2023-02-04T17:18:12.836Z,99559.97
2023-02-04T17:20:17.095Z,99552.28
2023-02-04T17:22:21.549Z,99554.81
2023-02-04T17:24:24.536Z,99548.88
2023-02-04T17:26:25.828Z,99554.84
2023-02-04T17:28:27.247Z,99557.41
2023-02-04T17:30:29.274Z,99556.56
2023-02-04T17:32:33.490Z,99551.50
2023-02-04T17:34:35.263Z,99557.44
2023-02-04T17:36:36.603Z,99566.88
2023-02-04T17:38:37.939Z,99570.28
2023-02-04T17:40:39.239Z,99578.81
2023-02-04T17:42:40.772Z,99579.69
2023-02-04T17:44:42.229Z,99578.84
2023-02-04T17:46:43.748Z,99567.81
2023-02-04T17:48:45.179Z,99580.59
2023-02-04T17:50:46.505Z,99587.47
2023-02-04T17:52:47.828Z,99578.97
2023-02-04T17:54:49.132Z,99581.50
2023-02-04T17:56:50.470Z,99578.94
2023-02-04T17:58:51.906Z,99581.53
2023-02-04T18:00:53.412Z,99583.22
2023-02-04T18:02:55.101Z,99584.09
2023-02-04T18:04:56.524Z,99584.91
2023-02-04T18:07:04.304Z,99588.31
2023-02-04T18:09:06.368Z,99587.47
2023-02-04T18:11:07.668Z,99595.13
2023-02-04T18:13:08.988Z,99589.16
2023-02-04T18:15:10.288Z,99595.09
2023-02-04T18:17:11.616Z,99593.38
2023-02-04T18:19:13.258Z,99604.44
2023-02-04T18:21:14.721Z,99590.78
2023-02-04T18:23:16.063Z,99454.28
2023-02-04T18:25:17.694Z,99604.41
2023-02-04T18:27:19.549Z,99596.72
2023-02-04T18:29:20.871Z,99601.84
2023-02-04T18:31:22.177Z,99595.03
2023-02-04T18:33:23.544Z,99594.16
2023-02-04T18:35:24.848Z,99591.59
2023-02-04T18:37:26.137Z,99584.78
2023-02-04T18:39:30.307Z,99595.84
2023-02-04T18:41:33.764Z,99583.94
2023-02-04T18:43:35.103Z,99586.47
2023-02-04T18:45:39.271Z,99590.72
2023-02-04T18:47:40.570Z,99588.16
2023-02-04T18:49:43.896Z,99589.84
2023-02-04T18:51:45.323Z,99592.41
2023-02-04T18:53:46.775Z,99600.06
2023-02-04T18:55:51.127Z,99594.16
2023-02-04T18:57:55.136Z,99597.53
2023-02-04T18:59:59.359Z,99595.84
2023-02-04T19:02:00.760Z,99588.22
2023-02-04T19:04:02.243Z,99598.47
2023-02-04T19:06:03.539Z,99599.31
2023-02-04T19:08:04.860Z,99603.59
2023-02-04T19:10:06.154Z,99606.19
2023-02-04T19:12:07.496Z,99601.13
2023-02-04T19:14:08.784Z,99606.22
2023-02-04T19:16:10.127Z,99603.66
2023-02-04T19:18:11.899Z,99613.03
2023-02-04T19:20:13.250Z,99613.06
2023-02-04T19:22:14.700Z,99617.31
2023-02-04T19:24:17.787Z,99613.88
2023-02-04T19:26:19.128Z,99619.00
2023-02-04T19:28:22.222Z,99618.13
2023-02-04T19:30:24.738Z,99627.50
2023-02-04T19:32:27.412Z,99621.47
2023-02-04T19:34:28.893Z,99629.16
2023-02-04T19:36:37.155Z,99631.66
2023-02-04T19:38:38.559Z,99634.22
2023-02-04T19:40:39.859Z,99630.81
2023-02-04T19:42:41.212Z,99638.44
2023-02-04T19:44:42.564Z,99629.91
2023-02-04T19:46:43.965Z,99637.66
2023-02-04T19:48:45.259Z,99634.34
2023-02-04T19:50:46.547Z,99630.13
2023-02-04T19:52:47.883Z,99635.25
2023-02-04T19:54:49.196Z,99633.56
2023-02-04T19:56:50.533Z,99635.25
2023-02-04T19:58:52.945Z,99638.69
2023-02-04T20:00:54.291Z,99630.16
2023-02-04T20:02:58.955Z,99629.31
2023-02-04T20:05:00.256Z,99627.59
2023-02-04T20:07:01.563Z,99630.16
2023-02-04T20:09:02.972Z,99636.97
2023-02-04T20:11:04.299Z,99632.63
2023-02-04T20:13:08.622Z,99631.72
2023-02-04T20:15:12.873Z,99640.19
2023-02-04T20:17:14.280Z,99638.31
2023-02-04T20:19:15.678Z,99645.25
2023-02-04T20:21:16.975Z,99650.34
2023-02-04T20:23:18.261Z,99653.84
2023-02-04T20:25:19.594Z,99653.81
2023-02-04T20:27:20.933Z,99656.31
2023-02-04T20:29:22.310Z,99666.63
2023-02-04T20:31:24.515Z,99662.16
2023-02-04T20:33:29.341Z,99659.56
2023-02-04T20:35:33.907Z,99653.75
2023-02-04T20:37:35.391Z,99657.31
2023-02-04T20:39:37.090Z,99665.88
2023-02-04T20:41:41.042Z,99668.38
2023-02-04T20:43:42.452Z,99667.59
2023-02-04T20:45:43.741Z,99672.72
2023-02-04T20:47:45.450Z,99681.25
2023-02-04T20:49:46.725Z,99683.81
2023-02-04T20:51:48.285Z,99690.66
2023-02-04T20:53:50.196Z,99691.53
2023-02-04T20:55:51.540Z,99699.25
2023-02-04T20:57:52.867Z,99696.66
2023-02-04T20:59:54.251Z,99698.38
2023-02-04T21:01:58.707Z,99695.75
2023-02-04T21:04:00.500Z,99686.28
2023-02-04T21:06:04.599Z,99693.97
2023-02-04T21:08:05.942Z,99690.56
2023-02-04T21:10:07.611Z,99704.13
2023-02-04T21:12:09.019Z,99693.00
2023-02-04T21:14:10.395Z,99701.50
2023-02-04T21:16:11.738Z,99698.06
2023-02-04T21:18:15.986Z,99704.22
2023-02-04T21:20:17.319Z,99702.34
2023-02-04T21:22:18.621Z,99700.78
2023-02-04T21:24:20.026Z,99706.03
2023-02-04T21:26:24.033Z,99710.28
2023-02-04T21:28:25.339Z,99708.47
2023-02-04T21:30:30.218Z,99708.50
2023-02-04T21:32:31.667Z,99711.91
2023-02-04T21:34:33.001Z,99710.22
2023-02-04T21:36:34.433Z,99711.06
2023-02-04T21:38:35.769Z,99716.97
2023-02-04T21:40:37.123Z,99713.59
2023-02-04T21:42:38.448Z,99713.59
2023-02-04T21:44:39.805Z,99722.16
2023-02-04T21:46:41.691Z,99723.91
2023-02-04T21:48:43.047Z,99720.47
2023-02-04T21:50:44.444Z,99722.16
2023-02-04T21:52:45.756Z,99734.16
2023-02-04T21:54:47.060Z,99726.44
2023-02-04T21:56:48.352Z,99732.44
2023-02-04T21:58:49.653Z,99729.91
2023-02-04T22:00:50.958Z,99735.00
2023-02-04T22:02:52.380Z,99744.44
2023-02-04T22:04:53.678Z,99740.22
2023-02-04T22:06:56.021Z,99740.19
2023-02-04T22:08:57.315Z,99737.47
2023-02-04T22:10:58.717Z,99745.97
2023-02-04T22:13:00.053Z,99746.78
2023-02-04T22:15:19.867Z,99746.78
2023-02-04T22:17:21.161Z,99746.75
2023-02-04T22:19:22.695Z,99750.09
2023-02-04T22:21:23.991Z,99752.91
2023-02-04T22:23:25.288Z,99757.25
2023-02-04T22:25:26.636Z,99754.69
2023-02-04T22:27:30.995Z,99756.41
2023-02-04T22:29:33.525Z,99750.44
2023-02-04T22:31:34.862Z,99748.72
2023-02-04T22:33:36.252Z,99752.03
2023-02-04T22:35:38.211Z,99745.91
2023-02-04T22:37:39.599Z,99741.72
2023-02-04T22:39:40.932Z,99746.84
2023-02-04T22:41:42.229Z,99748.66
2023-02-04T22:43:43.522Z,99751.19
2023-02-04T22:45:44.842Z,99764.03
2023-02-04T22:47:46.148Z,99757.25
2023-02-04T22:49:47.480Z,99758.09
2023-02-04T22:51:48.832Z,99752.94
2023-02-04T22:53:50.158Z,99750.41
2023-02-04T22:55:51.485Z,99751.25
2023-02-04T22:57:52.784Z,99756.38
2023-02-04T22:59:54.091Z,99760.69
2023-02-04T23:01:55.421Z,99764.09
2023-02-04T23:03:56.720Z,99762.38
2023-02-04T23:05:58.055Z,99757.25
2023-02-04T23:07:59.351Z,99761.53
2023-02-04T23:10:00.690Z,99760.69
2023-02-04T23:12:14.930Z,99759.84
2023-02-04T23:14:16.267Z,99758.81
2023-02-04T23:16:17.626Z,99757.19
2023-02-04T23:18:18.919Z,99759.75
2023-02-04T23:20:20.272Z,99756.38
2023-02-04T23:22:21.617Z,99758.94
2023-02-04T23:24:22.936Z,99769.13
2023-02-04T23:26:24.288Z,99775.06
2023-02-04T23:28:25.594Z,99770.84
2023-02-04T23:30:26.923Z,99771.69
2023-02-04T23:32:29.752Z,99767.38
2023-02-04T23:34:31.090Z,99782.75
2023-02-04T23:36:33.049Z,99765.66
2023-02-04T23:38:34.376Z,99775.22
2023-02-04T23:40:35.668Z,99783.16
2023-02-04T23:42:36.971Z,99768.06
2023-02-04T23:44:38.314Z,99771.22
2023-02-04T23:46:39.653Z,99768.91
2023-02-04T23:48:40.987Z,99763.88
2023-02-04T23:50:42.285Z,99765.63